METAR

Letisková meteorologická správa METAR

Meteorologické informácie z ďalších profesionálnych meteorologických staníc SHMÚ zobrazené v tvare zodpovedajúcom pravidlám kódovania správ METAR sú uvedené v položke „METSYN

Informácie o správe METAR

28.05.2017 - 02:30 UTC

METAR LZIB 280230Z 03005KT CAVOK 12/07 Q1024=
METAR LZKZ 280230Z VRB02KT CAVOK 08/06 Q1024=
METAR LZPP 280230Z AUTO 05003KT 9999 NCD 08/06 Q1024=
METAR LZSL 280230Z 13001KT CAVOK 07/05 Q1025=
METAR LZTT 280230Z 28004KT CAVOK 04/03 Q1026=
METAR LZZI 280230Z 09003KT CAVOK 07/06 Q1025=

28.05.2017 - 02:00 UTC

METAR LZIB 280200Z 02005KT CAVOK 13/07 Q1024=
METAR LZKZ 280200Z VRB02KT CAVOK 10/07 Q1024=
METAR LZPP 280200Z AUTO 05002KT 9999 NCD 08/07 Q1024=
METAR LZSL 280200Z 29001KT CAVOK 07/05 Q1025=
METAR LZTT 280200Z 27005KT CAVOK 04/02 Q1025=
METAR LZZI 280200Z VRB01KT CAVOK 07/05 Q1025=

Údaje nie sú momentálne k dispozícii

skok na menu ↑


skok na začiatok stránky ↑